Time;durP1;ratioP1;P1;durP2;ratioP2;P2;SDS_P1;SDS_P2;PMS_P1;PMS_P2;Temp;Humidity;BMP_temperature;BMP_pressure;BME280_temperature;BME280_humidity;BME280_pressure;Samples;Min_cycle;Max_cycle;Signal;HPM_P1;HPM_P2
2023/01/15 00:00:36;;;;;;;;;;;17.20;50.00;;;;;;5043531;28;43456;-79
2023/01/15 00:03:02;;;;;;;;;;;17.20;50.00;;;;;;5045781;28;42986;-81
2023/01/15 00:05:27;;;;;;;;;;;17.20;50.00;;;;;;5045658;28;43716;-80
2023/01/15 00:07:53;;;;;;;;;;;17.20;49.90;;;;;;5043359;28;42947;-80
2023/01/15 00:10:18;;;;;;;;;;;17.20;49.90;;;;;;5044100;28;42946;-85
2023/01/15 00:12:44;;;;;;;;;;;17.20;49.90;;;;;;5044766;28;43146;-79
2023/01/15 00:15:09;;;;;;;;;;;17.20;50.00;;;;;;5045399;28;43310;-80
2023/01/15 00:17:35;;;;;;;;;;;17.10;50.00;;;;;;5045589;28;42886;-85
2023/01/15 00:20:00;;;;;;;;;;;17.10;50.00;;;;;;5045207;28;42948;-81
2023/01/15 00:22:27;;;;;;;;;;;17.10;50.00;;;;;;5031638;28;42990;-80
2023/01/15 00:27:37;;;;;;;;;;;17.10;49.90;;;;;;5045058;28;43127;-85
2023/01/15 00:30:03;;;;;;;;;;;17.20;49.90;;;;;;5044859;28;43632;-80
2023/01/15 00:32:28;;;;;;;;;;;17.10;49.90;;;;;;5043318;28;42796;-80
2023/01/15 00:34:54;;;;;;;;;;;17.10;49.90;;;;;;5025654;28;43617;-84
2023/01/15 00:37:20;;;;;;;;;;;17.10;49.90;;;;;;5043926;28;43080;-81
2023/01/15 00:39:45;;;;;;;;;;;17.10;49.90;;;;;;5043371;28;42897;-80
2023/01/15 00:42:11;;;;;;;;;;;17.10;49.90;;;;;;5043548;28;42840;-81
2023/01/15 00:44:37;;;;;;;;;;;17.10;50.00;;;;;;5043793;28;44091;-83
2023/01/15 00:47:02;;;;;;;;;;;17.10;49.90;;;;;;5043675;28;42883;-80
2023/01/15 00:49:28;;;;;;;;;;;17.10;50.00;;;;;;5044604;28;43702;-80
2023/01/15 00:51:53;;;;;;;;;;;17.10;49.80;;;;;;5044726;28;43186;-82
2023/01/15 00:54:19;;;;;;;;;;;17.10;50.00;;;;;;5043409;28;43364;-79
2023/01/15 00:56:44;;;;;;;;;;;17.00;50.30;;;;;;5044193;28;42940;-83
2023/01/15 00:59:10;;;;;;;;;;;17.00;50.30;;;;;;5043805;28;43806;-80
2023/01/15 01:01:36;;;;;;;;;;;17.10;50.20;;;;;;5035497;28;42963;-80
2023/01/15 01:04:01;;;;;;;;;;;17.10;50.20;;;;;;5040289;28;43095;-83
2023/01/15 01:06:27;;;;;;;;;;;17.10;50.20;;;;;;5026280;28;43176;-79
2023/01/15 01:08:52;;;;;;;;;;;17.10;50.10;;;;;;5044099;28;42928;-85
2023/01/15 01:11:20;;;;;;;;;;;17.10;50.10;;;;;;5043870;28;42777;-80
2023/01/15 01:13:45;;;;;;;;;;;17.10;50.10;;;;;;5043725;28;43067;-79
2023/01/15 01:16:32;;;;;;;;;;;17.10;50.00;;;;;;5044754;28;43223;-80
2023/01/15 01:18:58;;;;;;;;;;;17.10;50.00;;;;;;5043227;28;43567;-82
2023/01/15 01:21:25;;;;;;;;;;;17.10;50.00;;;;;;5044394;28;43054;-81
2023/01/15 01:23:50;;;;;;;;;;;17.10;50.00;;;;;;5042536;28;43545;-80
2023/01/15 01:26:16;;;;;;;;;;;17.10;50.10;;;;;;5044321;28;42924;-79
2023/01/15 01:28:41;;;;;;;;;;;17.00;50.20;;;;;;5043537;28;43613;-82
2023/01/15 01:31:07;;;;;;;;;;;17.00;50.20;;;;;;5043290;28;43074;-83
2023/01/15 01:33:33;;;;;;;;;;;17.10;50.10;;;;;;5042506;28;42840;-83
2023/01/15 01:35:58;;;;;;;;;;;17.10;50.10;;;;;;5042803;28;43614;-84
2023/01/15 01:38:24;;;;;;;;;;;17.10;50.10;;;;;;5043343;28;42889;-80
2023/01/15 01:40:49;;;;;;;;;;;17.10;50.00;;;;;;5043717;28;42935;-81
2023/01/15 01:43:19;;;;;;;;;;;17.10;50.00;;;;;;5043162;28;43021;-80
2023/01/15 01:45:44;;;;;;;;;;;17.10;50.00;;;;;;5043147;28;43144;-80
2023/01/15 01:48:10;;;;;;;;;;;17.10;50.00;;;;;;5042872;28;43235;-79
2023/01/15 01:50:36;;;;;;;;;;;17.10;50.00;;;;;;5042961;28;43033;-81
2023/01/15 01:53:05;;;;;;;;;;;17.10;50.00;;;;;;5042578;28;42948;-83
2023/01/15 01:55:32;;;;;;;;;;;17.10;50.10;;;;;;5042967;28;42883;-80
2023/01/15 01:57:59;;;;;;;;;;;17.00;50.20;;;;;;5043215;28;42900;-80
2023/01/15 02:00:25;;;;;;;;;;;17.00;50.20;;;;;;5043552;28;42941;-83
2023/01/15 02:02:51;;;;;;;;;;;17.10;50.20;;;;;;5043553;28;42918;-84
2023/01/15 02:05:29;;;;;;;;;;;17.00;50.10;;;;;;5038056;28;43088;-84
2023/01/15 02:07:55;;;;;;;;;;;17.00;50.10;;;;;;5043358;28;43745;-84
2023/01/15 02:10:21;;;;;;;;;;;17.10;50.20;;;;;;5043407;28;42870;-84
2023/01/15 02:13:00;;;;;;;;;;;17.00;50.10;;;;;;5042580;28;43118;-86
2023/01/15 02:15:29;;;;;;;;;;;17.00;50.10;;;;;;5042823;28;42940;-80
2023/01/15 02:18:01;;;;;;;;;;;17.10;50.10;;;;;;5041993;28;43441;-85
2023/01/15 02:20:39;;;;;;;;;;;17.10;50.10;;;;;;5043058;28;43033;-80
2023/01/15 02:23:31;;;;;;;;;;;17.00;50.10;;;;;;5045338;28;42923;-84
2023/01/15 02:25:56;;;;;;;;;;;17.10;50.20;;;;;;5013953;28;43023;-80
2023/01/15 02:28:24;;;;;;;;;;;17.00;50.10;;;;;;5046350;28;42990;-79
2023/01/15 02:30:56;;;;;;;;;;;17.00;50.20;;;;;;5045781;28;43116;-84
2023/01/15 02:33:28;;;;;;;;;;;17.00;50.20;;;;;;5046402;28;43786;-80
2023/01/15 02:36:05;;;;;;;;;;;17.10;50.10;;;;;;5045470;28;42953;-85
2023/01/15 02:38:36;;;;;;;;;;;17.10;50.20;;;;;;5046231;28;43135;-85
2023/01/15 02:41:03;;;;;;;;;;;17.10;50.10;;;;;;5045361;28;42946;-84
2023/01/15 02:43:33;;;;;;;;;;;17.10;50.10;;;;;;5045169;28;43061;-85
2023/01/15 02:46:00;;;;;;;;;;;17.10;50.10;;;;;;5044280;28;42876;-83
2023/01/15 02:48:27;;;;;;;;;;;17.10;50.10;;;;;;5043842;28;42923;-80
2023/01/15 02:50:56;;;;;;;;;;;17.00;50.10;;;;;;5046020;28;43027;-80
2023/01/15 02:53:24;;;;;;;;;;;17.10;50.10;;;;;;5045348;28;42911;-80
2023/01/15 02:55:52;;;;;;;;;;;17.10;50.10;;;;;;5045302;28;42920;-80
2023/01/15 02:58:20;;;;;;;;;;;17.10;50.10;;;;;;5045791;28;43767;-80
2023/01/15 03:00:47;;;;;;;;;;;17.10;50.10;;;;;;5045842;28;42989;-80
2023/01/15 03:03:16;;;;;;;;;;;17.10;50.10;;;;;;5026466;28;45707;-83
2023/01/15 03:05:50;;;;;;;;;;;17.10;50.10;;;;;;5035626;28;43553;-84
2023/01/15 03:08:16;;;;;;;;;;;17.00;50.10;;;;;;5027897;28;43211;-80
2023/01/15 03:10:46;;;;;;;;;;;17.10;50.10;;;;;;5015563;28;43113;-81
2023/01/15 03:13:24;;;;;;;;;;;17.10;50.10;;;;;;5043288;28;42939;-82
2023/01/15 03:19:03;;;;;;;;;;;17.10;50.10;;;;;;5039770;28;43155;-85
2023/01/15 03:21:51;;;;;;;;;;;17.00;50.10;;;;;;5033790;28;42945;-83
2023/01/15 03:24:19;;;;;;;;;;;17.00;50.20;;;;;;5033934;28;43628;-85
2023/01/15 03:26:45;;;;;;;;;;;17.00;50.20;;;;;;5034377;28;43064;-83
2023/01/15 03:29:11;;;;;;;;;;;17.00;50.20;;;;;;5043334;28;42935;-81
2023/01/15 03:31:36;;;;;;;;;;;17.00;50.10;;;;;;5045378;28;43019;-80
2023/01/15 03:34:02;;;;;;;;;;;17.00;50.20;;;;;;5044148;28;43489;-80
2023/01/15 03:36:28;;;;;;;;;;;17.00;50.20;;;;;;5044985;28;42980;-86
2023/01/15 03:38:53;;;;;;;;;;;17.00;50.20;;;;;;5029651;28;43593;-80
2023/01/15 03:41:28;;;;;;;;;;;17.00;50.70;;;;;;5024524;28;43151;-84
2023/01/15 03:43:53;;;;;;;;;;;17.00;50.10;;;;;;5025019;28;43614;-84
2023/01/15 03:46:31;;;;;;;;;;;17.00;50.20;;;;;;5025065;28;43020;-80
2023/01/15 03:49:15;;;;;;;;;;;17.00;50.10;;;;;;5028528;28;44066;-84
2023/01/15 03:51:41;;;;;;;;;;;17.00;50.20;;;;;;5031963;28;42982;-80
2023/01/15 03:54:10;;;;;;;;;;;17.00;50.20;;;;;;5024603;28;43644;-84
2023/01/15 03:56:41;;;;;;;;;;;17.00;50.20;;;;;;5025132;28;43216;-85
2023/01/15 03:59:17;;;;;;;;;;;17.00;50.20;;;;;;5012813;28;42881;-82
2023/01/15 04:01:44;;;;;;;;;;;17.00;50.20;;;;;;5025404;28;42985;-85
2023/01/15 04:04:11;;;;;;;;;;;17.00;50.20;;;;;;5025288;28;42995;-82
2023/01/15 04:06:38;;;;;;;;;;;17.00;50.20;;;;;;5024498;28;42842;-85
2023/01/15 04:09:05;;;;;;;;;;;17.00;50.20;;;;;;5028784;28;42972;-80
2023/01/15 04:11:30;;;;;;;;;;;17.00;50.20;;;;;;5032836;28;42822;-84
2023/01/15 04:13:56;;;;;;;;;;;17.00;50.20;;;;;;5026385;28;43774;-80
2023/01/15 04:16:26;;;;;;;;;;;17.00;50.20;;;;;;5025901;28;42857;-82
2023/01/15 04:18:52;;;;;;;;;;;17.00;50.20;;;;;;5024689;28;45430;-80
2023/01/15 04:21:17;;;;;;;;;;;17.00;50.20;;;;;;5024845;28;42966;-81
2023/01/15 04:23:43;;;;;;;;;;;17.00;50.20;;;;;;5025509;28;43036;-86
2023/01/15 04:26:08;;;;;;;;;;;17.00;50.20;;;;;;5024087;28;42912;-85
2023/01/15 04:28:34;;;;;;;;;;;17.00;50.20;;;;;;5024428;28;42933;-84
2023/01/15 04:31:00;;;;;;;;;;;17.00;50.20;;;;;;5024665;28;43075;-84
2023/01/15 04:33:25;;;;;;;;;;;17.00;50.20;;;;;;5025278;28;43016;-80
2023/01/15 04:35:51;;;;;;;;;;;17.00;50.20;;;;;;5025906;28;42780;-79
2023/01/15 04:38:19;;;;;;;;;;;17.00;50.20;;;;;;5024877;28;43573;-85
2023/01/15 04:46:13;;;;;;;;;;;17.00;50.10;;;;;;5042086;28;43309;-82
2023/01/15 04:48:39;;;;;;;;;;;17.00;50.10;;;;;;5032008;28;43659;-84
2023/01/15 04:51:05;;;;;;;;;;;17.00;50.20;;;;;;5042348;28;42939;-84
2023/01/15 04:53:31;;;;;;;;;;;17.00;50.20;;;;;;5043544;28;43857;-85
2023/01/15 04:56:03;;;;;;;;;;;17.00;50.20;;;;;;5043688;28;42977;-80
2023/01/15 04:58:29;;;;;;;;;;;17.00;50.20;;;;;;5041386;28;43063;-84
2023/01/15 05:00:55;;;;;;;;;;;16.90;50.30;;;;;;5026682;28;42973;-84
2023/01/15 05:03:21;;;;;;;;;;;16.90;50.30;;;;;;5043734;28;43638;-80
2023/01/15 05:05:46;;;;;;;;;;;16.90;50.30;;;;;;5036281;28;43079;-79
2023/01/15 05:08:12;;;;;;;;;;;16.90;50.30;;;;;;5043110;28;43236;-81
2023/01/15 05:10:37;;;;;;;;;;;16.90;50.20;;;;;;5042521;28;43309;-81
2023/01/15 05:13:03;;;;;;;;;;;16.90;50.30;;;;;;5044559;28;43481;-79
2023/01/15 05:15:28;;;;;;;;;;;16.90;50.30;;;;;;5043962;28;42909;-84
2023/01/15 05:17:55;;;;;;;;;;;17.00;50.20;;;;;;5043730;28;43003;-82
2023/01/15 05:20:20;;;;;;;;;;;17.00;50.20;;;;;;5044143;28;43406;-81
2023/01/15 05:22:46;;;;;;;;;;;17.00;50.10;;;;;;5044219;28;43405;-83
2023/01/15 05:25:11;;;;;;;;;;;17.00;50.20;;;;;;5042896;28;42988;-80
2023/01/15 05:27:37;;;;;;;;;;;17.00;50.20;;;;;;5044085;28;42936;-80
2023/01/15 05:30:02;;;;;;;;;;;16.90;50.20;;;;;;5044013;28;43150;-80
2023/01/15 05:32:29;;;;;;;;;;;17.00;50.30;;;;;;5043746;28;43074;-80
2023/01/15 05:34:54;;;;;;;;;;;17.00;50.20;;;;;;5044451;28;42956;-79
2023/01/15 05:37:20;;;;;;;;;;;17.00;50.20;;;;;;5044007;28;42981;-84
2023/01/15 05:39:45;;;;;;;;;;;16.90;50.10;;;;;;5044217;28;42978;-83
2023/01/15 05:42:10;;;;;;;;;;;17.00;50.20;;;;;;5042579;28;42993;-84
2023/01/15 05:44:36;;;;;;;;;;;17.00;50.20;;;;;;5024913;28;43711;-80
2023/01/15 05:47:04;;;;;;;;;;;17.00;50.20;;;;;;5042982;28;44394;-79
2023/01/15 05:49:30;;;;;;;;;;;17.00;50.20;;;;;;5025141;28;42868;-84
2023/01/15 05:51:57;;;;;;;;;;;17.00;50.20;;;;;;5043406;28;43021;-79
2023/01/15 05:54:23;;;;;;;;;;;17.00;50.20;;;;;;5042238;28;42968;-79
2023/01/15 05:56:49;;;;;;;;;;;17.00;50.20;;;;;;5042939;28;43660;-83
2023/01/15 05:59:16;;;;;;;;;;;17.00;50.20;;;;;;5046789;28;42875;-79
2023/01/15 06:01:41;;;;;;;;;;;16.90;50.20;;;;;;5046594;28;43709;-83
2023/01/15 06:04:07;;;;;;;;;;;17.00;50.20;;;;;;5047394;28;43026;-79
2023/01/15 06:06:33;;;;;;;;;;;16.90;50.30;;;;;;5047055;28;42927;-83
2023/01/15 06:08:59;;;;;;;;;;;16.90;50.30;;;;;;5046008;28;42925;-80
2023/01/15 06:11:24;;;;;;;;;;;17.00;50.20;;;;;;5047017;28;43514;-79
2023/01/15 06:13:50;;;;;;;;;;;16.90;50.30;;;;;;5046440;28;43158;-80
2023/01/15 06:16:17;;;;;;;;;;;16.90;50.20;;;;;;5046387;28;44080;-84
2023/01/15 06:18:42;;;;;;;;;;;16.90;50.20;;;;;;5046666;28;42927;-80
2023/01/15 06:21:09;;;;;;;;;;;17.00;50.20;;;;;;5046900;28;43595;-79
2023/01/15 06:23:35;;;;;;;;;;;16.90;50.20;;;;;;5046707;28;42817;-84
2023/01/15 06:26:02;;;;;;;;;;;17.00;50.20;;;;;;5046211;28;43688;-80
2023/01/15 06:28:27;;;;;;;;;;;16.90;50.30;;;;;;5040679;28;42982;-82
2023/01/15 06:30:53;;;;;;;;;;;16.90;50.20;;;;;;5042531;28;43058;-82
2023/01/15 06:33:18;;;;;;;;;;;16.90;50.30;;;;;;5046358;28;42962;-80
2023/01/15 06:35:44;;;;;;;;;;;16.90;50.20;;;;;;5046221;28;43507;-79
2023/01/15 06:38:09;;;;;;;;;;;17.00;50.20;;;;;;5046203;28;43030;-79
2023/01/15 06:40:35;;;;;;;;;;;16.90;50.10;;;;;;5036327;28;43010;-82
2023/01/15 06:48:52;;;;;;;;;;;17.00;50.30;;;;;;4994204;28;43013;-85
2023/01/15 06:51:19;;;;;;;;;;;17.00;50.30;;;;;;5002317;28;42921;-85
2023/01/15 06:53:45;;;;;;;;;;;17.00;50.50;;;;;;5001845;28;43144;-82
2023/01/15 06:56:13;;;;;;;;;;;17.00;50.40;;;;;;5002293;28;43703;-82
2023/01/15 06:58:38;;;;;;;;;;;17.00;50.30;;;;;;4999192;28;42987;-85
2023/01/15 07:01:11;;;;;;;;;;;17.00;50.60;;;;;;5003137;28;43079;-80
2023/01/15 07:03:37;;;;;;;;;;;17.00;50.20;;;;;;5003840;28;43375;-84
2023/01/15 07:06:09;;;;;;;;;;;17.00;50.50;;;;;;5002880;28;43000;-80
2023/01/15 07:08:35;;;;;;;;;;;17.00;50.20;;;;;;4994165;28;42969;-81
2023/01/15 07:11:01;;;;;;;;;;;16.90;50.30;;;;;;5000998;28;43770;-84
2023/01/15 07:13:27;;;;;;;;;;;16.90;50.40;;;;;;5002113;28;43591;-83
2023/01/15 07:15:52;;;;;;;;;;;17.00;50.30;;;;;;5002874;28;44396;-84
2023/01/15 07:18:18;;;;;;;;;;;17.00;50.50;;;;;;5037871;28;43056;-81
2023/01/15 07:20:44;;;;;;;;;;;17.00;50.50;;;;;;5044733;28;43663;-85
2023/01/15 07:23:09;;;;;;;;;;;17.00;50.50;;;;;;5053272;28;42916;-80
2023/01/15 07:25:36;;;;;;;;;;;16.90;50.90;;;;;;5058828;28;43894;-80
2023/01/15 07:28:01;;;;;;;;;;;16.80;50.80;;;;;;5048016;28;43016;-83
2023/01/15 07:30:27;;;;;;;;;;;16.70;50.80;;;;;;5052627;28;42878;-79
2023/01/15 07:32:54;;;;;;;;;;;16.80;49.90;;;;;;5044412;28;43005;-82
2023/01/15 07:35:20;;;;;;;;;;;16.80;50.30;;;;;;5035935;28;43038;-82
2023/01/15 07:37:49;;;;;;;;;;;16.80;50.10;;;;;;5038312;28;42985;-81
2023/01/15 07:40:15;;;;;;;;;;;16.80;49.40;;;;;;5035295;28;42980;-81
2023/01/15 07:50:53;;;;;;;;;;;16.60;49.20;;;;;;5045395;28;44624;-79
2023/01/15 07:53:19;;;;;;;;;;;16.60;49.50;;;;;;5045458;28;42883;-81
2023/01/15 07:55:44;;;;;;;;;;;16.60;49.40;;;;;;5044579;28;42968;-82
2023/01/15 07:58:10;;;;;;;;;;;16.60;49.40;;;;;;5045228;28;42975;-81
2023/01/15 08:00:35;;;;;;;;;;;16.50;49.20;;;;;;5045567;28;42904;-82
2023/01/15 08:03:02;;;;;;;;;;;16.50;49.20;;;;;;5039928;28;43683;-82
2023/01/15 08:05:28;;;;;;;;;;;16.50;49.30;;;;;;5034337;28;43115;-89
2023/01/15 08:07:53;;;;;;;;;;;16.50;50.80;;;;;;5001326;28;43034;-82
2023/01/15 08:10:19;;;;;;;;;;;16.50;49.80;;;;;;5005774;28;44463;-80
2023/01/15 08:15:33;;;;;;;;;;;16.50;49.00;;;;;;5022377;28;43204;-81
2023/01/15 08:17:59;;;;;;;;;;;16.50;48.90;;;;;;5024714;28;43095;-81
2023/01/15 08:20:25;;;;;;;;;;;16.50;49.00;;;;;;5023278;28;43067;-81
2023/01/15 08:22:50;;;;;;;;;;;16.40;48.80;;;;;;5027404;28;42942;-82
2023/01/15 08:25:17;;;;;;;;;;;16.40;48.90;;;;;;5021346;28;43417;-78
2023/01/15 08:27:43;;;;;;;;;;;16.50;49.00;;;;;;5025255;28;42909;-81
2023/01/15 08:30:10;;;;;;;;;;;16.50;48.70;;;;;;5032452;28;43534;-81
2023/01/15 08:32:36;;;;;;;;;;;16.50;48.60;;;;;;5033471;28;43008;-81
2023/01/15 08:35:01;;;;;;;;;;;16.40;48.60;;;;;;5023688;28;43506;-82
2023/01/15 08:37:27;;;;;;;;;;;16.40;48.50;;;;;;5024645;28;43096;-80
2023/01/15 08:39:52;;;;;;;;;;;16.40;49.10;;;;;;5018061;28;43090;-81
2023/01/15 08:42:21;;;;;;;;;;;16.40;50.10;;;;;;5029170;28;43122;-81
2023/01/15 08:44:47;;;;;;;;;;;16.40;50.20;;;;;;5024889;28;43916;-81
2023/01/15 08:47:13;;;;;;;;;;;16.50;50.60;;;;;;5035266;28;42943;-82
2023/01/15 08:49:38;;;;;;;;;;;16.40;50.20;;;;;;5020212;28;42948;-81
2023/01/15 08:52:04;;;;;;;;;;;16.50;50.60;;;;;;5043547;28;42989;-81
2023/01/15 08:54:29;;;;;;;;;;;16.50;50.60;;;;;;5043013;28;43895;-81
2023/01/15 08:56:55;;;;;;;;;;;16.50;50.30;;;;;;5036633;28;43038;-81
2023/01/15 08:59:21;;;;;;;;;;;16.50;50.80;;;;;;5038941;28;43918;-81
2023/01/15 09:01:47;;;;;;;;;;;16.50;50.40;;;;;;5028176;28;42868;-81
2023/01/15 09:04:13;;;;;;;;;;;16.60;50.20;;;;;;5031067;28;43773;-80
2023/01/15 09:06:39;;;;;;;;;;;16.60;50.10;;;;;;5040396;28;43124;-81
2023/01/15 09:09:04;;;;;;;;;;;16.60;50.10;;;;;;5044251;28;43548;-81
2023/01/15 09:11:30;;;;;;;;;;;16.70;50.30;;;;;;5050354;28;42960;-81
2023/01/15 09:13:55;;;;;;;;;;;16.60;50.40;;;;;;5048025;28;43029;-80
2023/01/15 09:16:21;;;;;;;;;;;16.60;50.30;;;;;;5044898;28;42931;-81
2023/01/15 09:18:47;;;;;;;;;;;16.60;50.50;;;;;;5048605;28;43607;-81
2023/01/15 09:21:21;;;;;;;;;;;16.50;50.80;;;;;;5048487;28;43046;-80
2023/01/15 09:23:46;;;;;;;;;;;16.50;50.60;;;;;;5025150;28;44669;-80
2023/01/15 09:26:26;;;;;;;;;;;16.60;50.40;;;;;;5046408;28;43003;-81
2023/01/15 09:28:52;;;;;;;;;;;16.60;50.00;;;;;;5032087;28;43456;-81
2023/01/15 09:31:17;;;;;;;;;;;16.60;50.30;;;;;;5044427;28;43024;-80
2023/01/15 09:33:43;;;;;;;;;;;16.50;50.70;;;;;;5044177;28;43138;-81
2023/01/15 09:36:18;;;;;;;;;;;16.50;50.50;;;;;;5043385;28;43048;-81
2023/01/15 09:38:44;;;;;;;;;;;16.60;50.10;;;;;;5045047;28;43092;-81
2023/01/15 09:44:07;;;;;;;;;;;16.70;49.90;;;;;;5044520;28;43186;-81
2023/01/15 09:46:39;;;;;;;;;;;16.80;49.80;;;;;;5048280;28;43090;-79
2023/01/15 09:49:05;;;;;;;;;;;16.80;49.70;;;;;;5056877;28;43036;-81
2023/01/15 09:51:30;;;;;;;;;;;16.50;50.30;;;;;;5030409;28;42994;-81
2023/01/15 09:53:56;;;;;;;;;;;16.80;50.20;;;;;;5048871;28;43562;-80
2023/01/15 09:56:27;;;;;;;;;;;16.80;50.30;;;;;;5043347;28;43189;-79
2023/01/15 09:58:52;;;;;;;;;;;16.80;49.70;;;;;;5043149;28;43050;-80
2023/01/15 10:01:31;;;;;;;;;;;16.80;50.50;;;;;;5043511;28;43054;-81
2023/01/15 10:04:06;;;;;;;;;;;16.80;49.70;;;;;;5042667;28;44030;-80
2023/01/15 10:06:37;;;;;;;;;;;16.70;49.70;;;;;;5049093;28;42996;-79
2023/01/15 10:09:08;;;;;;;;;;;16.70;50.00;;;;;;5042642;28;43684;-81
2023/01/15 10:14:37;;;;;;;;;;;16.70;50.00;;;;;;5044442;28;42916;-79
2023/01/15 10:17:04;;;;;;;;;;;16.70;49.90;;;;;;5049537;28;43013;-81
2023/01/15 10:19:30;;;;;;;;;;;16.70;50.00;;;;;;5048164;28;42995;-80
2023/01/15 10:22:05;;;;;;;;;;;16.80;49.80;;;;;;5045548;28;42872;-80
2023/01/15 10:24:36;;;;;;;;;;;16.80;49.80;;;;;;5050092;28;42856;-80
2023/01/15 10:27:06;;;;;;;;;;;16.80;49.80;;;;;;5042623;28;42970;-79
2023/01/15 10:29:40;;;;;;;;;;;16.80;49.80;;;;;;5053505;28;42951;-82
2023/01/15 10:32:18;;;;;;;;;;;16.70;49.80;;;;;;5031177;28;43029;-85
2023/01/15 10:34:52;;;;;;;;;;;16.70;50.00;;;;;;5042362;28;43162;-81
2023/01/15 10:37:23;;;;;;;;;;;16.70;49.90;;;;;;5042306;28;42998;-80
2023/01/15 10:40:03;;;;;;;;;;;16.80;50.00;;;;;;5045352;28;43470;-79
2023/01/15 10:42:46;;;;;;;;;;;16.70;49.90;;;;;;5043240;28;42945;-86
2023/01/15 10:45:16;;;;;;;;;;;16.80;49.80;;;;;;5045756;28;42909;-80
2023/01/15 10:47:42;;;;;;;;;;;16.80;49.80;;;;;;5046361;28;42954;-85
2023/01/15 10:50:26;;;;;;;;;;;16.80;49.80;;;;;;5033054;28;44745;-80
2023/01/15 10:53:07;;;;;;;;;;;16.80;49.70;;;;;;5046278;28;42904;-80
2023/01/15 10:55:43;;;;;;;;;;;16.80;49.80;;;;;;5047230;28;44610;-82
2023/01/15 10:58:15;;;;;;;;;;;16.80;49.80;;;;;;5045354;28;42975;-81
2023/01/15 11:00:44;;;;;;;;;;;16.70;49.70;;;;;;5055912;28;42916;-82
2023/01/15 11:03:13;;;;;;;;;;;16.80;49.80;;;;;;5027977;28;42940;-83
2023/01/15 11:05:39;;;;;;;;;;;16.80;49.80;;;;;;5045324;28;44505;-82
2023/01/15 11:08:06;;;;;;;;;;;16.70;49.90;;;;;;5035613;28;43195;-82
2023/01/15 11:10:32;;;;;;;;;;;16.70;49.80;;;;;;5007150;28;44757;-81
2023/01/15 11:21:26;;;;;;;;;;;16.80;49.80;;;;;;5037165;28;43159;-83
2023/01/15 11:23:54;;;;;;;;;;;16.70;49.80;;;;;;5037116;28;43044;-83
2023/01/15 11:26:24;;;;;;;;;;;16.80;49.80;;;;;;5025709;28;43050;-82
2023/01/15 11:28:50;;;;;;;;;;;16.80;49.80;;;;;;5026378;28;42937;-81
2023/01/15 11:31:16;;;;;;;;;;;16.80;49.80;;;;;;5037817;28;43897;-80
2023/01/15 11:33:56;;;;;;;;;;;16.80;49.80;;;;;;5024123;28;42952;-81
2023/01/15 11:36:23;;;;;;;;;;;16.80;49.80;;;;;;5033616;28;43534;-81
2023/01/15 11:38:49;;;;;;;;;;;16.70;49.80;;;;;;5027575;28;43023;-80
2023/01/15 11:41:18;;;;;;;;;;;16.70;49.80;;;;;;5036212;28;43687;-83
2023/01/15 11:52:07;;;;;;;;;;;16.70;50.00;;;;;;5021131;28;43127;-82
2023/01/15 11:54:36;;;;;;;;;;;16.70;50.10;;;;;;5024976;28;43054;-80
2023/01/15 11:57:02;;;;;;;;;;;16.60;50.30;;;;;;5025605;28;45035;-86
2023/01/15 11:59:28;;;;;;;;;;;16.70;50.10;;;;;;5025408;28;43098;-79
2023/01/15 12:01:59;;;;;;;;;;;16.70;50.10;;;;;;5025385;28;44488;-80
2023/01/15 12:04:28;;;;;;;;;;;16.70;50.10;;;;;;5002831;28;43548;-80
2023/01/15 12:06:53;;;;;;;;;;;16.70;50.10;;;;;;5038605;28;43045;-80
2023/01/15 12:09:30;;;;;;;;;;;16.70;50.20;;;;;;5045503;28;42950;-79
2023/01/15 12:12:04;;;;;;;;;;;16.70;50.30;;;;;;5045818;28;44272;-80
2023/01/15 12:14:34;;;;;;;;;;;16.70;50.40;;;;;;5040021;28;42903;-79
2023/01/15 12:17:19;;;;;;;;;;;16.70;50.40;;;;;;5043843;28;42998;-80
2023/01/15 12:20:03;;;;;;;;;;;16.70;50.50;;;;;;5044780;28;43088;-80
2023/01/15 12:22:43;;;;;;;;;;;16.70;50.60;;;;;;5041162;28;43066;-79
2023/01/15 12:25:27;;;;;;;;;;;16.70;50.60;;;;;;5042985;28;43510;-81
2023/01/15 12:28:00;;;;;;;;;;;16.70;50.70;;;;;;5038431;28;62567;-81
2023/01/15 12:30:32;;;;;;;;;;;16.70;50.80;;;;;;5019618;28;43248;-83
2023/01/15 12:33:03;;;;;;;;;;;16.70;50.80;;;;;;5030928;28;43260;-81
2023/01/15 12:35:30;;;;;;;;;;;16.70;50.80;;;;;;5042960;28;42919;-83
2023/01/15 12:37:58;;;;;;;;;;;16.80;50.90;;;;;;5038356;28;43040;-82
2023/01/15 12:40:27;;;;;;;;;;;16.80;50.90;;;;;;5044678;28;42884;-87
2023/01/15 12:45:40;;;;;;;;;;;16.80;51.00;;;;;;5040449;28;42964;-81
2023/01/15 12:48:12;;;;;;;;;;;16.80;51.10;;;;;;5044546;28;43050;-85
2023/01/15 12:50:43;;;;;;;;;;;16.80;51.20;;;;;;5041629;28;42992;-81
2023/01/15 12:53:12;;;;;;;;;;;16.80;51.30;;;;;;5035654;28;44059;-80
2023/01/15 12:55:41;;;;;;;;;;;16.90;51.30;;;;;;5041083;28;43249;-80
2023/01/15 12:58:12;;;;;;;;;;;16.90;51.40;;;;;;5038925;28;44305;-81
2023/01/15 13:00:42;;;;;;;;;;;16.90;51.40;;;;;;5032906;28;43167;-82
2023/01/15 13:03:07;;;;;;;;;;;16.90;51.40;;;;;;5034791;28;43734;-82
2023/01/15 13:05:36;;;;;;;;;;;16.90;51.40;;;;;;5033062;28;44544;-82
2023/01/15 13:08:18;;;;;;;;;;;16.90;51.50;;;;;;5040064;28;43068;-81
2023/01/15 13:10:45;;;;;;;;;;;16.90;51.50;;;;;;5036113;28;43096;-82
2023/01/15 13:13:18;;;;;;;;;;;14.40;50.40;;;;;;5036710;28;43159;-81
2023/01/15 13:15:49;;;;;;;;;;;16.90;51.50;;;;;;5041556;28;43345;-82
2023/01/15 13:18:25;;;;;;;;;;;16.90;51.50;;;;;;5041051;28;43067;-82
2023/01/15 13:20:53;;;;;;;;;;;16.90;51.60;;;;;;5044710;28;43092;-82
2023/01/15 13:23:37;;;;;;;;;;;16.90;51.60;;;;;;5023423;28;44617;-82
2023/01/15 13:26:06;;;;;;;;;;;17.00;51.70;;;;;;5040116;28;42954;-82
2023/01/15 13:28:47;;;;;;;;;;;17.00;51.70;;;;;;5041668;28;43398;-84
2023/01/15 13:31:12;;;;;;;;;;;17.00;51.70;;;;;;5022479;28;43156;-82
2023/01/15 13:33:53;;;;;;;;;;;17.00;51.80;;;;;;5041205;28;43521;-82
2023/01/15 13:36:18;;;;;;;;;;;17.00;51.80;;;;;;5030614;28;43939;-82
2023/01/15 13:38:45;;;;;;;;;;;17.00;51.80;;;;;;5022622;28;44654;-83
2023/01/15 13:42:30;;;;;;;;;;;17.00;51.80;;;;;;5040883;28;43542;-83
2023/01/15 13:44:02;;;;;;;;;;;17.00;51.80;;;;;;5040873;28;43126;-84
2023/01/15 13:46:28;;;;;;;;;;;17.00;51.80;;;;;;5022821;28;43105;-82
2023/01/15 13:48:54;;;;;;;;;;;17.00;51.80;;;;;;5045224;28;43582;-83
2023/01/15 13:51:25;;;;;;;;;;;17.00;51.80;;;;;;5041014;28;43154;-82
2023/01/15 13:53:51;;;;;;;;;;;17.10;52.40;;;;;;5046195;28;42997;-82
2023/01/15 13:56:27;;;;;;;;;;;17.10;52.00;;;;;;5044467;28;43120;-82
2023/01/15 13:58:55;;;;;;;;;;;17.10;51.90;;;;;;5027780;28;43697;-83
2023/01/15 14:01:22;;;;;;;;;;;17.10;51.90;;;;;;5006296;28;43274;-82
2023/01/15 14:04:06;;;;;;;;;;;17.00;51.90;;;;;;5023435;28;44788;-82
2023/01/15 14:06:42;;;;;;;;;;;17.10;52.50;;;;;;4978077;28;1845273;-82
2023/01/15 14:09:09;;;;;;;;;;;17.10;52.00;;;;;;5040713;28;44548;-82
2023/01/15 14:11:36;;;;;;;;;;;17.10;52.00;;;;;;5042084;28;43090;-81
2023/01/15 14:14:20;;;;;;;;;;;17.10;52.10;;;;;;5036432;28;43717;-82
2023/01/15 14:16:50;;;;;;;;;;;17.10;52.00;;;;;;5041705;28;43061;-81
2023/01/15 14:19:18;;;;;;;;;;;17.10;52.00;;;;;;5026455;28;43189;-82
2023/01/15 14:21:54;;;;;;;;;;;17.10;52.10;;;;;;5048166;28;42985;-82
2023/01/15 14:24:42;;;;;;;;;;;17.10;52.10;;;;;;5038660;28;43435;-82
2023/01/15 14:27:34;;;;;;;;;;;17.10;52.10;;;;;;5025185;28;43030;-82
2023/01/15 14:30:02;;;;;;;;;;;17.10;52.10;;;;;;5007251;28;43057;-82
2023/01/15 14:32:40;;;;;;;;;;;17.20;52.20;;;;;;5030059;28;43087;-81
2023/01/15 14:35:10;;;;;;;;;;;17.20;52.20;;;;;;5044483;28;43673;-82
2023/01/15 14:37:43;;;;;;;;;;;17.20;52.20;;;;;;5027534;28;42915;-81
2023/01/15 14:40:17;;;;;;;;;;;17.10;52.40;;;;;;5032980;28;44645;-81
2023/01/15 14:43:00;;;;;;;;;;;17.10;52.20;;;;;;5044197;28;42974;-81
2023/01/15 14:45:46;;;;;;;;;;;17.20;52.30;;;;;;5025075;28;43039;-81
2023/01/15 14:48:17;;;;;;;;;;;17.20;52.30;;;;;;5041922;28;42921;-82
2023/01/15 14:50:43;;;;;;;;;;;17.20;52.30;;;;;;5039794;28;44367;-81
2023/01/15 14:53:14;;;;;;;;;;;17.20;52.30;;;;;;5045251;28;43010;-82
2023/01/15 14:55:55;;;;;;;;;;;17.20;52.40;;;;;;5045916;28;43167;-81
2023/01/15 14:58:21;;;;;;;;;;;17.20;52.40;;;;;;5045497;28;43463;-83
2023/01/15 15:00:48;;;;;;;;;;;17.20;52.40;;;;;;5040940;28;43790;-81
2023/01/15 15:03:19;;;;;;;;;;;17.20;52.40;;;;;;5048133;28;43283;-82
2023/01/15 15:05:45;;;;;;;;;;;17.20;52.40;;;;;;5043228;28;43260;-81
2023/01/15 15:08:13;;;;;;;;;;;17.20;52.40;;;;;;5044489;28;43103;-81
2023/01/15 15:10:43;;;;;;;;;;;17.30;52.50;;;;;;5039652;28;43728;-81
2023/01/15 15:13:18;;;;;;;;;;;17.20;52.40;;;;;;5038138;28;43053;-81
2023/01/15 15:15:53;;;;;;;;;;;17.30;52.60;;;;;;5040589;28;44380;-82
2023/01/15 15:18:35;;;;;;;;;;;17.20;52.50;;;;;;5030621;28;43110;-81